createdAt,value
2019-03-22T00:01:53.029Z,101783.04
2019-03-22T00:06:58.751Z,101776.57
2019-03-22T00:12:04.513Z,101776.39
2019-03-22T00:17:10.070Z,101769.92
2019-03-22T00:22:15.620Z,101766.61
2019-03-22T00:27:21.371Z,101767.69
2019-03-22T00:32:26.916Z,101759.68
2019-03-22T00:37:33.446Z,101766.67
2019-03-22T00:42:39.113Z,101765.27
2019-03-22T00:47:45.706Z,101764.36
2019-03-22T00:52:51.366Z,101769.88
2019-03-22T00:57:57.040Z,101764.23
2019-03-22T01:03:02.505Z,101753.94
2019-03-22T01:08:08.002Z,101757.09
2019-03-22T01:13:14.101Z,101756.80
2019-03-22T01:18:19.649Z,101760.70
2019-03-22T01:23:25.648Z,101758.50
2019-03-22T01:28:31.416Z,101755.17
2019-03-22T01:33:37.554Z,101751.20
2019-03-22T01:38:43.117Z,101754.89
2019-03-22T01:43:48.689Z,101751.64
2019-03-22T01:48:54.664Z,101753.97
2019-03-22T01:54:00.420Z,101750.27
2019-03-22T01:59:06.138Z,101750.26
2019-03-22T02:04:12.051Z,101758.22
2019-03-22T02:09:17.981Z,101767.66
2019-03-22T02:14:23.756Z,101758.13
2019-03-22T02:19:29.393Z,101756.16
2019-03-22T02:24:34.966Z,101757.44
2019-03-22T02:29:40.513Z,101747.41
2019-03-22T02:34:48.645Z,101749.05
2019-03-22T02:39:54.424Z,101751.84
2019-03-22T02:45:00.003Z,101741.44
2019-03-22T02:50:17.981Z,101738.79
2019-03-22T02:55:14.971Z,101735.53
2019-03-22T03:00:20.962Z,101734.98
2019-03-22T03:05:26.662Z,101731.81
2019-03-22T03:10:32.296Z,101731.19
2019-03-22T03:15:37.887Z,101735.45
2019-03-22T03:20:43.616Z,101742.47
2019-03-22T03:25:49.132Z,101746.11
2019-03-22T03:30:54.769Z,101738.39
2019-03-22T03:36:00.411Z,101751.84
2019-03-22T03:41:07.266Z,101746.99
2019-03-22T03:46:12.896Z,101750.87
2019-03-22T03:51:18.454Z,101755.03
2019-03-22T03:56:24.202Z,101756.44
2019-03-22T04:01:29.728Z,101752.47
2019-03-22T04:06:35.531Z,101747.21
2019-03-22T04:11:41.331Z,101744.16
2019-03-22T04:16:46.948Z,101736.63
2019-03-22T04:21:52.751Z,101740.80
2019-03-22T04:26:58.310Z,101739.86
2019-03-22T04:32:04.527Z,101747.50
2019-03-22T04:37:10.435Z,101747.26
2019-03-22T04:42:15.973Z,101751.47
2019-03-22T04:47:22.612Z,101760.58
2019-03-22T04:52:28.651Z,101759.08
2019-03-22T04:57:34.725Z,101767.23
2019-03-22T05:02:41.022Z,101763.62
2019-03-22T05:07:46.976Z,101759.30
2019-03-22T05:12:53.375Z,101761.70
2019-03-22T05:17:59.249Z,101765.44
2019-03-22T05:23:05.457Z,101770.06
2019-03-22T05:28:12.944Z,101776.03
2019-03-22T05:33:18.811Z,101780.13
2019-03-22T05:38:24.343Z,101780.13
2019-03-22T05:43:30.109Z,101780.48
2019-03-22T05:48:35.633Z,101769.89
2019-03-22T05:53:41.573Z,101783.77
2019-03-22T05:58:48.541Z,101784.97
2019-03-22T06:03:54.246Z,101807.25
2019-03-22T06:09:00.005Z,101804.73
2019-03-22T06:14:05.775Z,101800.41
2019-03-22T06:19:11.932Z,101801.00
2019-03-22T06:24:17.556Z,101797.59
2019-03-22T06:29:23.272Z,101796.80
2019-03-22T06:34:29.076Z,101799.09
2019-03-22T06:39:36.090Z,101810.64
2019-03-22T06:44:42.262Z,101826.89
2019-03-22T06:49:47.866Z,101825.95
2019-03-22T06:54:53.636Z,101816.79
2019-03-22T07:00:06.619Z,101822.20
2019-03-22T07:05:07.272Z,101831.95
2019-03-22T07:10:13.119Z,101842.89
2019-03-22T07:15:18.918Z,101857.28
2019-03-22T07:20:25.490Z,101839.56
2019-03-22T07:25:31.163Z,101845.72
2019-03-22T07:30:37.242Z,101849.45
2019-03-22T07:35:43.278Z,101842.38
2019-03-22T07:40:48.894Z,101843.20
2019-03-22T07:45:54.726Z,101840.44
2019-03-22T07:51:00.387Z,101841.84
2019-03-22T07:56:06.568Z,101841.43
2019-03-22T08:01:12.304Z,101839.14
2019-03-22T08:06:18.094Z,101821.70
2019-03-22T08:11:24.894Z,101809.63
2019-03-22T08:16:30.965Z,101821.42
2019-03-22T08:21:36.568Z,101830.23
2019-03-22T08:26:42.246Z,101834.57
2019-03-22T08:31:48.316Z,101841.87
2019-03-22T08:36:54.402Z,101844.52
2019-03-22T08:42:00.311Z,101832.16
2019-03-22T08:47:07.443Z,101838.82
2019-03-22T08:52:13.207Z,101831.30
2019-03-22T08:57:18.991Z,101845.81
2019-03-22T09:02:25.606Z,101841.58
2019-03-22T09:07:31.680Z,101831.79
2019-03-22T09:12:37.970Z,101829.63
2019-03-22T09:17:44.133Z,101832.30
2019-03-22T09:22:50.315Z,101830.35
2019-03-22T09:27:57.090Z,101832.81
2019-03-22T09:33:02.763Z,101824.77
2019-03-22T09:38:13.134Z,101829.33
2019-03-22T09:43:17.962Z,101830.01
2019-03-22T09:48:23.688Z,101825.52
2019-03-22T09:53:30.569Z,101818.08
2019-03-22T09:58:36.508Z,101819.77
2019-03-22T10:03:42.732Z,101818.77
2019-03-22T10:08:49.378Z,101811.37
2019-03-22T10:13:58.124Z,101805.05
2019-03-22T10:19:04.055Z,101806.20
2019-03-22T10:24:12.762Z,101798.84
2019-03-22T10:29:19.288Z,101789.47
2019-03-22T10:34:30.061Z,101790.73
2019-03-22T10:39:35.801Z,101785.97
2019-03-22T10:44:41.876Z,101793.72
2019-03-22T10:49:47.674Z,101782.86
2019-03-22T10:54:53.508Z,101772.15
2019-03-22T10:59:59.436Z,101780.01
2019-03-22T11:05:15.932Z,101768.95
2019-03-22T11:10:21.704Z,101767.05
2019-03-22T11:15:26.230Z,101760.14
2019-03-22T11:20:31.888Z,101750.04
2019-03-22T11:25:36.358Z,101753.91
2019-03-22T11:30:40.769Z,101737.52
2019-03-22T11:35:45.212Z,101738.19
2019-03-22T11:40:49.576Z,101738.34
2019-03-22T11:45:54.466Z,101724.72
2019-03-22T11:50:59.342Z,101717.34
2019-03-22T11:56:03.939Z,101721.09
2019-03-22T12:01:08.470Z,101715.31
2019-03-22T12:06:12.955Z,101715.53
2019-03-22T12:11:18.700Z,101705.95
2019-03-22T12:16:23.408Z,101700.48
2019-03-22T12:21:27.870Z,101698.05
2019-03-22T12:26:33.228Z,101685.92
2019-03-22T12:31:39.390Z,101678.72
2019-03-22T12:36:43.706Z,101662.11
2019-03-22T12:41:48.769Z,101656.67
2019-03-22T12:46:53.600Z,101645.52
2019-03-22T12:51:58.066Z,101635.29
2019-03-22T12:57:02.308Z,101623.95
2019-03-22T13:02:07.552Z,101620.08
2019-03-22T13:07:12.128Z,101609.08
2019-03-22T13:12:21.460Z,101610.45
2019-03-22T13:17:25.966Z,101605.11
2019-03-22T13:22:30.452Z,101601.70
2019-03-22T13:27:35.092Z,101599.89
2019-03-22T13:32:39.819Z,101590.73
2019-03-22T13:37:44.659Z,101579.03
2019-03-22T13:42:49.650Z,101565.13
2019-03-22T13:47:54.318Z,101561.81
2019-03-22T13:52:58.933Z,101556.63
2019-03-22T13:58:03.519Z,101546.75
2019-03-22T14:03:08.069Z,101542.37
2019-03-22T14:08:13.688Z,101530.11
2019-03-22T14:13:19.425Z,101521.13
2019-03-22T14:18:25.316Z,101520.77
2019-03-22T14:23:31.040Z,101513.91
2019-03-22T14:28:36.796Z,101506.44
2019-03-22T14:33:42.919Z,101495.79
2019-03-22T14:38:49.173Z,101495.58
2019-03-22T14:43:54.833Z,101482.19
2019-03-22T14:49:02.430Z,101484.47
2019-03-22T14:54:11.578Z,101468.56
2019-03-22T14:59:17.444Z,101456.45
2019-03-22T15:04:32.022Z,101451.30
2019-03-22T15:09:38.488Z,101440.81
2019-03-22T15:15:03.327Z,101427.59
2019-03-22T15:20:27.805Z,101424.93
2019-03-22T15:25:52.904Z,101419.39
2019-03-22T15:31:16.597Z,101414.38
2019-03-22T15:36:37.400Z,101402.28
2019-03-22T15:41:46.709Z,101398.81
2019-03-22T15:47:11.391Z,101397.91
2019-03-22T15:52:17.260Z,101388.30
2019-03-22T15:57:23.253Z,101382.44
2019-03-22T16:02:28.956Z,101376.84
2019-03-22T16:07:34.833Z,101377.41
2019-03-22T16:12:41.081Z,101381.34
2019-03-22T16:17:47.783Z,101377.73
2019-03-22T16:22:55.088Z,101376.45
2019-03-22T16:28:00.769Z,101376.77
2019-03-22T16:33:08.714Z,101374.64
2019-03-22T16:38:14.508Z,101377.67
2019-03-22T16:43:20.094Z,101375.55
2019-03-22T16:48:26.065Z,101372.96
2019-03-22T16:53:31.860Z,101374.77
2019-03-22T16:58:37.828Z,101379.59
2019-03-22T17:03:43.771Z,101371.38
2019-03-22T17:08:49.588Z,101373.17
2019-03-22T17:13:55.197Z,101377.20
2019-03-22T17:19:00.766Z,101369.39
2019-03-22T17:24:06.672Z,101366.09
2019-03-22T17:29:12.296Z,101372.41
2019-03-22T17:34:18.292Z,101373.09
2019-03-22T17:39:24.012Z,101372.02
2019-03-22T17:44:29.798Z,101380.50
2019-03-22T17:49:35.876Z,101375.52
2019-03-22T17:54:41.497Z,101381.78
2019-03-22T17:59:47.079Z,101375.66
2019-03-22T18:04:52.980Z,101387.02
2019-03-22T18:09:59.184Z,101382.73
2019-03-22T18:15:05.524Z,101376.45
2019-03-22T18:20:11.543Z,101381.04
2019-03-22T18:25:17.204Z,101390.09
2019-03-22T18:30:24.118Z,101384.52
2019-03-22T18:35:31.482Z,101385.94
2019-03-22T18:40:37.144Z,101382.25
2019-03-22T18:45:43.054Z,101377.80
2019-03-22T18:50:56.389Z,101377.99
2019-03-22T18:55:55.884Z,101372.93
2019-03-22T19:01:01.807Z,101374.12
2019-03-22T19:06:08.566Z,101381.66
2019-03-22T19:11:21.970Z,101370.48
2019-03-22T19:16:27.564Z,101373.50
2019-03-22T19:21:33.130Z,101367.80
2019-03-22T19:26:38.800Z,101361.38
2019-03-22T19:31:47.076Z,101348.27
2019-03-22T19:36:55.702Z,101344.58
2019-03-22T19:42:01.328Z,101346.92
2019-03-22T19:47:06.931Z,101343.59
2019-03-22T19:52:12.739Z,101334.57
2019-03-22T19:57:18.641Z,101336.11
2019-03-22T20:02:24.541Z,101334.31
2019-03-22T20:07:30.160Z,101329.08
2019-03-22T20:12:35.732Z,101328.06
2019-03-22T20:17:41.431Z,101327.50
2019-03-22T20:22:47.333Z,101322.41
2019-03-22T20:27:55.130Z,101318.51
2019-03-22T20:33:00.922Z,101324.74
2019-03-22T20:38:06.930Z,101320.48
2019-03-22T20:43:12.812Z,101315.16
2019-03-22T20:48:18.452Z,101313.36
2019-03-22T20:53:24.224Z,101313.38
2019-03-22T20:58:29.948Z,101314.52
2019-03-22T21:03:35.512Z,101309.77
2019-03-22T21:08:41.305Z,101302.55
2019-03-22T21:13:46.958Z,101308.24
2019-03-22T21:18:52.614Z,101306.53
2019-03-22T21:23:58.369Z,101308.25
2019-03-22T21:29:04.492Z,101309.11
2019-03-22T21:34:10.290Z,101304.87
2019-03-22T21:39:17.230Z,101301.98
2019-03-22T21:44:23.511Z,101297.48
2019-03-22T21:49:30.135Z,101295.11
2019-03-22T21:54:35.916Z,101281.27
2019-03-22T21:59:41.740Z,101283.69
2019-03-22T22:04:47.449Z,101277.87
2019-03-22T22:09:53.108Z,101279.77
2019-03-22T22:14:58.604Z,101268.58
2019-03-22T22:20:04.188Z,101267.78
2019-03-22T22:25:14.854Z,101267.52
2019-03-22T22:30:20.501Z,101264.63
2019-03-22T22:35:26.212Z,101259.02
2019-03-22T22:40:31.954Z,101257.96
2019-03-22T22:45:37.808Z,101255.56
2019-03-22T22:50:43.443Z,101248.91
2019-03-22T22:55:49.333Z,101246.77
2019-03-22T23:00:54.924Z,101246.83
2019-03-22T23:06:09.432Z,101247.68
2019-03-22T23:11:10.339Z,101238.88
2019-03-22T23:16:15.907Z,101238.88
2019-03-22T23:21:21.635Z,101236.51
2019-03-22T23:26:27.583Z,101227.51
2019-03-22T23:31:33.831Z,101239.29
2019-03-22T23:36:39.698Z,101231.86
2019-03-22T23:41:45.290Z,101228.66
2019-03-22T23:46:51.039Z,101222.03
2019-03-22T23:51:56.714Z,101215.12
2019-03-22T23:57:02.435Z,101208.23
